sensor_id;sensor_type;location;lat;lon;timestamp;P1;durP1;ratioP1;P2;durP2;ratioP2
13439;SDS011;6792;57.698;11.946;2022-07-23T00:00:48;11.05;;;3.75;;
13439;SDS011;6792;57.698;11.946;2022-07-23T00:03:17;8.18;;;3.10;;
13439;SDS011;6792;57.698;11.946;2022-07-23T00:05:47;12.68;;;3.85;;
13439;SDS011;6792;57.698;11.946;2022-07-23T00:08:15;11.48;;;3.27;;
13439;SDS011;6792;57.698;11.946;2022-07-23T00:10:44;8.55;;;3.70;;
13439;SDS011;6792;57.698;11.946;2022-07-23T00:13:13;8.20;;;3.47;;
13439;SDS011;6792;57.698;11.946;2022-07-23T00:15:43;7.92;;;2.83;;
13439;SDS011;6792;57.698;11.946;2022-07-23T00:18:12;12.35;;;3.72;;
13439;SDS011;6792;57.698;11.946;2022-07-23T00:20:41;9.75;;;2.95;;
13439;SDS011;6792;57.698;11.946;2022-07-23T00:23:10;5.53;;;3.17;;
13439;SDS011;6792;57.698;11.946;2022-07-23T00:25:39;8.85;;;4.00;;
13439;SDS011;6792;57.698;11.946;2022-07-23T00:28:08;12.05;;;3.83;;
13439;SDS011;6792;57.698;11.946;2022-07-23T00:30:37;9.93;;;3.55;;
13439;SDS011;6792;57.698;11.946;2022-07-23T00:33:06;5.45;;;2.90;;
13439;SDS011;6792;57.698;11.946;2022-07-23T00:35:36;11.18;;;3.25;;
13439;SDS011;6792;57.698;11.946;2022-07-23T00:38:07;10.03;;;2.80;;
13439;SDS011;6792;57.698;11.946;2022-07-23T00:40:37;4.33;;;2.58;;
13439;SDS011;6792;57.698;11.946;2022-07-23T00:43:07;7.15;;;2.85;;
13439;SDS011;6792;57.698;11.946;2022-07-23T00:45:36;6.80;;;2.27;;
13439;SDS011;6792;57.698;11.946;2022-07-23T00:48:05;3.27;;;2.27;;
13439;SDS011;6792;57.698;11.946;2022-07-23T00:50:34;4.08;;;1.90;;
13439;SDS011;6792;57.698;11.946;2022-07-23T00:53:04;4.53;;;2.15;;
13439;SDS011;6792;57.698;11.946;2022-07-23T00:55:34;2.08;;;1.70;;
13439;SDS011;6792;57.698;11.946;2022-07-23T00:58:03;6.35;;;1.92;;
13439;SDS011;6792;57.698;11.946;2022-07-23T01:00:33;4.22;;;1.60;;
13439;SDS011;6792;57.698;11.946;2022-07-23T01:03:02;4.37;;;1.17;;
13439;SDS011;6792;57.698;11.946;2022-07-23T01:05:31;2.05;;;1.67;;
13439;SDS011;6792;57.698;11.946;2022-07-23T01:08:00;5.00;;;2.08;;
13439;SDS011;6792;57.698;11.946;2022-07-23T01:10:28;2.60;;;1.57;;
13439;SDS011;6792;57.698;11.946;2022-07-23T01:12:58;3.25;;;1.25;;
13439;SDS011;6792;57.698;11.946;2022-07-23T01:15:31;2.87;;;1.07;;
13439;SDS011;6792;57.698;11.946;2022-07-23T01:18:00;4.83;;;1.10;;
13439;SDS011;6792;57.698;11.946;2022-07-23T01:20:30;3.25;;;1.30;;
13439;SDS011;6792;57.698;11.946;2022-07-23T01:22:59;1.70;;;0.93;;
13439;SDS011;6792;57.698;11.946;2022-07-23T01:25:28;1.67;;;0.95;;
13439;SDS011;6792;57.698;11.946;2022-07-23T01:27:57;2.05;;;0.80;;
13439;SDS011;6792;57.698;11.946;2022-07-23T01:30:26;3.55;;;0.88;;
13439;SDS011;6792;57.698;11.946;2022-07-23T01:32:55;0.75;;;0.50;;
13439;SDS011;6792;57.698;11.946;2022-07-23T01:35:26;2.05;;;0.70;;
13439;SDS011;6792;57.698;11.946;2022-07-23T01:37:55;0.60;;;0.60;;
13439;SDS011;6792;57.698;11.946;2022-07-23T01:40:26;0.50;;;0.50;;
13439;SDS011;6792;57.698;11.946;2022-07-23T01:42:55;0.53;;;0.53;;
13439;SDS011;6792;57.698;11.946;2022-07-23T01:45:24;0.72;;;0.53;;
13439;SDS011;6792;57.698;11.946;2022-07-23T01:47:52;0.50;;;0.50;;
13439;SDS011;6792;57.698;11.946;2022-07-23T01:50:21;0.50;;;0.45;;
13439;SDS011;6792;57.698;11.946;2022-07-23T01:52:49;1.85;;;0.70;;
13439;SDS011;6792;57.698;11.946;2022-07-23T01:55:18;1.10;;;0.60;;
13439;SDS011;6792;57.698;11.946;2022-07-23T01:57:47;1.20;;;0.70;;
13439;SDS011;6792;57.698;11.946;2022-07-23T02:00:16;0.47;;;0.47;;
13439;SDS011;6792;57.698;11.946;2022-07-23T02:02:45;0.57;;;0.57;;
13439;SDS011;6792;57.698;11.946;2022-07-23T02:05:17;0.93;;;0.50;;
13439;SDS011;6792;57.698;11.946;2022-07-23T02:07:48;0.62;;;0.30;;
13439;SDS011;6792;57.698;11.946;2022-07-23T02:10:20;1.25;;;0.80;;
13439;SDS011;6792;57.698;11.946;2022-07-23T02:12:49;0.35;;;0.35;;
13439;SDS011;6792;57.698;11.946;2022-07-23T02:15:18;1.15;;;0.40;;
13439;SDS011;6792;57.698;11.946;2022-07-23T02:17:48;0.57;;;0.30;;
13439;SDS011;6792;57.698;11.946;2022-07-23T02:20:19;1.45;;;0.57;;
13439;SDS011;6792;57.698;11.946;2022-07-23T02:22:48;0.30;;;0.30;;
13439;SDS011;6792;57.698;11.946;2022-07-23T02:25:17;0.85;;;0.40;;
13439;SDS011;6792;57.698;11.946;2022-07-23T02:27:48;0.55;;;0.30;;
13439;SDS011;6792;57.698;11.946;2022-07-23T02:30:19;0.53;;;0.30;;
13439;SDS011;6792;57.698;11.946;2022-07-23T02:32:48;0.98;;;0.50;;
13439;SDS011;6792;57.698;11.946;2022-07-23T02:35:17;0.35;;;0.35;;
13439;SDS011;6792;57.698;11.946;2022-07-23T02:37:47;0.80;;;0.45;;
13439;SDS011;6792;57.698;11.946;2022-07-23T02:40:18;0.45;;;0.40;;
13439;SDS011;6792;57.698;11.946;2022-07-23T02:42:47;1.00;;;0.30;;
13439;SDS011;6792;57.698;11.946;2022-07-23T02:45:18;0.40;;;0.37;;
13439;SDS011;6792;57.698;11.946;2022-07-23T02:47:47;0.30;;;0.30;;
13439;SDS011;6792;57.698;11.946;2022-07-23T02:50:17;0.72;;;0.40;;
13439;SDS011;6792;57.698;11.946;2022-07-23T02:52:48;0.60;;;0.60;;
13439;SDS011;6792;57.698;11.946;2022-07-23T02:55:17;1.55;;;0.70;;
13439;SDS011;6792;57.698;11.946;2022-07-23T02:57:46;1.72;;;0.53;;
13439;SDS011;6792;57.698;11.946;2022-07-23T03:00:15;0.62;;;0.50;;
13439;SDS011;6792;57.698;11.946;2022-07-23T03:02:47;0.40;;;0.40;;
13439;SDS011;6792;57.698;11.946;2022-07-23T03:05:18;0.72;;;0.57;;
13439;SDS011;6792;57.698;11.946;2022-07-23T03:07:50;0.60;;;0.60;;
13439;SDS011;6792;57.698;11.946;2022-07-23T03:10:19;0.78;;;0.60;;
13439;SDS011;6792;57.698;11.946;2022-07-23T03:12:47;1.02;;;0.45;;
13439;SDS011;6792;57.698;11.946;2022-07-23T03:15:19;0.60;;;0.60;;
13439;SDS011;6792;57.698;11.946;2022-07-23T03:17:48;0.68;;;0.65;;
13439;SDS011;6792;57.698;11.946;2022-07-23T03:20:17;0.68;;;0.60;;
13439;SDS011;6792;57.698;11.946;2022-07-23T03:22:48;1.47;;;0.50;;
13439;SDS011;6792;57.698;11.946;2022-07-23T03:25:17;1.15;;;0.80;;
13439;SDS011;6792;57.698;11.946;2022-07-23T03:27:48;0.40;;;0.40;;
13439;SDS011;6792;57.698;11.946;2022-07-23T03:30:19;0.60;;;0.60;;
13439;SDS011;6792;57.698;11.946;2022-07-23T03:32:48;0.65;;;0.62;;
13439;SDS011;6792;57.698;11.946;2022-07-23T03:35:17;0.93;;;0.70;;
13439;SDS011;6792;57.698;11.946;2022-07-23T03:37:46;1.17;;;0.60;;
13439;SDS011;6792;57.698;11.946;2022-07-23T03:40:15;0.98;;;0.88;;
13439;SDS011;6792;57.698;11.946;2022-07-23T03:42:44;0.60;;;0.60;;
13439;SDS011;6792;57.698;11.946;2022-07-23T03:45:17;0.72;;;0.70;;
13439;SDS011;6792;57.698;11.946;2022-07-23T03:47:48;1.40;;;0.70;;
13439;SDS011;6792;57.698;11.946;2022-07-23T03:50:17;0.60;;;0.60;;
13439;SDS011;6792;57.698;11.946;2022-07-23T03:52:47;0.68;;;0.68;;
13439;SDS011;6792;57.698;11.946;2022-07-23T03:55:17;0.88;;;0.88;;
13439;SDS011;6792;57.698;11.946;2022-07-23T03:57:48;0.57;;;0.57;;
13439;SDS011;6792;57.698;11.946;2022-07-23T04:00:17;0.60;;;0.60;;
13439;SDS011;6792;57.698;11.946;2022-07-23T04:02:48;0.68;;;0.68;;
13439;SDS011;6792;57.698;11.946;2022-07-23T04:05:17;0.65;;;0.65;;
13439;SDS011;6792;57.698;11.946;2022-07-23T04:07:46;1.27;;;0.85;;
13439;SDS011;6792;57.698;11.946;2022-07-23T04:10:15;0.78;;;0.78;;
13439;SDS011;6792;57.698;11.946;2022-07-23T04:12:47;1.00;;;0.80;;
13439;SDS011;6792;57.698;11.946;2022-07-23T04:15:18;0.50;;;0.50;;
13439;SDS011;6792;57.698;11.946;2022-07-23T04:17:47;0.85;;;0.60;;
13439;SDS011;6792;57.698;11.946;2022-07-23T04:20:17;0.98;;;0.70;;
13439;SDS011;6792;57.698;11.946;2022-07-23T04:22:48;0.80;;;0.80;;
13439;SDS011;6792;57.698;11.946;2022-07-23T04:25:17;0.80;;;0.80;;
13439;SDS011;6792;57.698;11.946;2022-07-23T04:27:46;0.68;;;0.57;;
13439;SDS011;6792;57.698;11.946;2022-07-23T04:30:15;0.85;;;0.60;;
13439;SDS011;6792;57.698;11.946;2022-07-23T04:32:47;1.52;;;0.60;;
13439;SDS011;6792;57.698;11.946;2022-07-23T04:35:17;0.70;;;0.53;;
13439;SDS011;6792;57.698;11.946;2022-07-23T04:37:48;0.70;;;0.70;;
13439;SDS011;6792;57.698;11.946;2022-07-23T04:40:19;0.70;;;0.70;;
13439;SDS011;6792;57.698;11.946;2022-07-23T04:42:48;0.70;;;0.70;;
13439;SDS011;6792;57.698;11.946;2022-07-23T04:45:17;0.50;;;0.50;;
13439;SDS011;6792;57.698;11.946;2022-07-23T04:47:46;1.42;;;0.60;;
13439;SDS011;6792;57.698;11.946;2022-07-23T04:50:15;1.00;;;0.50;;
13439;SDS011;6792;57.698;11.946;2022-07-23T04:52:48;0.50;;;0.50;;
13439;SDS011;6792;57.698;11.946;2022-07-23T04:55:17;0.78;;;0.60;;
13439;SDS011;6792;57.698;11.946;2022-07-23T04:57:49;0.60;;;0.53;;
13439;SDS011;6792;57.698;11.946;2022-07-23T05:00:18;0.57;;;0.57;;
13439;SDS011;6792;57.698;11.946;2022-07-23T05:02:47;0.95;;;0.68;;
13439;SDS011;6792;57.698;11.946;2022-07-23T05:05:19;0.80;;;0.80;;
13439;SDS011;6792;57.698;11.946;2022-07-23T05:07:48;0.50;;;0.50;;
13439;SDS011;6792;57.698;11.946;2022-07-23T05:10:20;0.75;;;0.60;;
13439;SDS011;6792;57.698;11.946;2022-07-23T05:12:49;1.15;;;0.55;;
13439;SDS011;6792;57.698;11.946;2022-07-23T05:15:18;0.53;;;0.40;;
13439;SDS011;6792;57.698;11.946;2022-07-23T05:17:50;0.50;;;0.50;;
13439;SDS011;6792;57.698;11.946;2022-07-23T05:20:21;0.60;;;0.50;;
13439;SDS011;6792;57.698;11.946;2022-07-23T05:22:50;0.70;;;0.70;;
13439;SDS011;6792;57.698;11.946;2022-07-23T05:25:18;1.10;;;0.40;;
13439;SDS011;6792;57.698;11.946;2022-07-23T05:27:47;0.50;;;0.50;;
13439;SDS011;6792;57.698;11.946;2022-07-23T05:30:17;1.20;;;0.70;;
13439;SDS011;6792;57.698;11.946;2022-07-23T05:32:48;1.10;;;0.40;;
13439;SDS011;6792;57.698;11.946;2022-07-23T05:35:17;0.47;;;0.47;;
13439;SDS011;6792;57.698;11.946;2022-07-23T05:37:46;2.02;;;0.50;;
13439;SDS011;6792;57.698;11.946;2022-07-23T05:40:15;0.70;;;0.50;;
13439;SDS011;6792;57.698;11.946;2022-07-23T05:42:47;0.95;;;0.50;;
13439;SDS011;6792;57.698;11.946;2022-07-23T05:45:17;1.40;;;0.53;;
13439;SDS011;6792;57.698;11.946;2022-07-23T05:47:47;0.55;;;0.50;;
13439;SDS011;6792;57.698;11.946;2022-07-23T05:50:19;0.33;;;0.30;;
13439;SDS011;6792;57.698;11.946;2022-07-23T05:52:50;0.45;;;0.45;;
13439;SDS011;6792;57.698;11.946;2022-07-23T05:55:19;0.78;;;0.60;;
13439;SDS011;6792;57.698;11.946;2022-07-23T05:57:48;0.53;;;0.53;;
13439;SDS011;6792;57.698;11.946;2022-07-23T06:00:17;0.57;;;0.40;;
13439;SDS011;6792;57.698;11.946;2022-07-23T06:02:48;0.60;;;0.60;;
13439;SDS011;6792;57.698;11.946;2022-07-23T06:05:18;0.37;;;0.37;;
13439;SDS011;6792;57.698;11.946;2022-07-23T06:07:47;2.40;;;0.60;;
13439;SDS011;6792;57.698;11.946;2022-07-23T06:10:18;1.80;;;0.78;;
13439;SDS011;6792;57.698;11.946;2022-07-23T06:12:47;0.35;;;0.35;;
13439;SDS011;6792;57.698;11.946;2022-07-23T06:15:16;0.70;;;0.70;;
13439;SDS011;6792;57.698;11.946;2022-07-23T06:17:45;1.25;;;0.40;;
13439;SDS011;6792;57.698;11.946;2022-07-23T06:20:14;0.50;;;0.50;;
13439;SDS011;6792;57.698;11.946;2022-07-23T06:22:50;1.42;;;0.40;;
13439;SDS011;6792;57.698;11.946;2022-07-23T06:25:19;1.98;;;0.50;;
13439;SDS011;6792;57.698;11.946;2022-07-23T06:27:48;1.62;;;0.50;;
13439;SDS011;6792;57.698;11.946;2022-07-23T06:30:17;0.57;;;0.40;;
13439;SDS011;6792;57.698;11.946;2022-07-23T06:32:57;0.30;;;0.30;;
13439;SDS011;6792;57.698;11.946;2022-07-23T06:35:26;1.27;;;0.55;;
13439;SDS011;6792;57.698;11.946;2022-07-23T06:37:55;0.98;;;0.40;;
13439;SDS011;6792;57.698;11.946;2022-07-23T06:40:24;0.35;;;0.35;;
13439;SDS011;6792;57.698;11.946;2022-07-23T06:42:53;0.40;;;0.40;;
13439;SDS011;6792;57.698;11.946;2022-07-23T06:45:27;0.40;;;0.30;;
13439;SDS011;6792;57.698;11.946;2022-07-23T06:47:56;0.42;;;0.40;;
13439;SDS011;6792;57.698;11.946;2022-07-23T06:50:25;0.30;;;0.30;;
13439;SDS011;6792;57.698;11.946;2022-07-23T06:52:54;0.95;;;0.35;;
13439;SDS011;6792;57.698;11.946;2022-07-23T06:55:25;0.30;;;0.30;;
13439;SDS011;6792;57.698;11.946;2022-07-23T06:57:54;0.37;;;0.37;;
13439;SDS011;6792;57.698;11.946;2022-07-23T07:00:23;4.65;;;0.50;;
13439;SDS011;6792;57.698;11.946;2022-07-23T07:02:53;0.85;;;0.55;;
13439;SDS011;6792;57.698;11.946;2022-07-23T07:05:22;0.57;;;0.50;;
13439;SDS011;6792;57.698;11.946;2022-07-23T07:07:54;0.70;;;0.40;;
13439;SDS011;6792;57.698;11.946;2022-07-23T07:10:23;1.45;;;0.65;;
13439;SDS011;6792;57.698;11.946;2022-07-23T07:12:52;1.75;;;0.75;;
13439;SDS011;6792;57.698;11.946;2022-07-23T07:15:21;0.50;;;0.50;;
13439;SDS011;6792;57.698;11.946;2022-07-23T07:17:50;0.40;;;0.40;;
13439;SDS011;6792;57.698;11.946;2022-07-23T07:20:19;0.88;;;0.62;;
13439;SDS011;6792;57.698;11.946;2022-07-23T07:22:47;0.60;;;0.60;;
13439;SDS011;6792;57.698;11.946;2022-07-23T07:25:19;1.32;;;0.60;;
13439;SDS011;6792;57.698;11.946;2022-07-23T07:27:48;0.80;;;0.80;;
13439;SDS011;6792;57.698;11.946;2022-07-23T07:30:17;0.50;;;0.50;;
13439;SDS011;6792;57.698;11.946;2022-07-23T07:32:48;1.82;;;0.60;;
13439;SDS011;6792;57.698;11.946;2022-07-23T07:35:19;0.93;;;0.65;;
13439;SDS011;6792;57.698;11.946;2022-07-23T07:37:48;1.27;;;0.65;;
13439;SDS011;6792;57.698;11.946;2022-07-23T07:40:17;0.57;;;0.57;;
13439;SDS011;6792;57.698;11.946;2022-07-23T07:42:47;1.10;;;0.50;;
13439;SDS011;6792;57.698;11.946;2022-07-23T07:45:19;1.60;;;0.70;;
13439;SDS011;6792;57.698;11.946;2022-07-23T07:47:49;2.00;;;0.70;;
13439;SDS011;6792;57.698;11.946;2022-07-23T07:50:20;0.80;;;0.60;;
13439;SDS011;6792;57.698;11.946;2022-07-23T07:52:50;0.80;;;0.70;;
13439;SDS011;6792;57.698;11.946;2022-07-23T07:55:19;1.77;;;0.65;;
13439;SDS011;6792;57.698;11.946;2022-07-23T07:57:48;0.50;;;0.50;;
13439;SDS011;6792;57.698;11.946;2022-07-23T08:00:17;0.50;;;0.50;;
13439;SDS011;6792;57.698;11.946;2022-07-23T08:02:48;0.55;;;0.55;;
13439;SDS011;6792;57.698;11.946;2022-07-23T08:05:19;0.40;;;0.40;;
13439;SDS011;6792;57.698;11.946;2022-07-23T08:07:49;0.82;;;0.37;;
13439;SDS011;6792;57.698;11.946;2022-07-23T08:10:18;0.55;;;0.47;;
13439;SDS011;6792;57.698;11.946;2022-07-23T08:12:48;0.93;;;0.60;;
13439;SDS011;6792;57.698;11.946;2022-07-23T08:15:23;1.15;;;0.70;;
13439;SDS011;6792;57.698;11.946;2022-07-23T08:17:53;0.78;;;0.62;;
13439;SDS011;6792;57.698;11.946;2022-07-23T08:20:23;0.57;;;0.57;;
13439;SDS011;6792;57.698;11.946;2022-07-23T08:22:53;0.68;;;0.50;;
13439;SDS011;6792;57.698;11.946;2022-07-23T08:25:24;2.65;;;0.42;;
13439;SDS011;6792;57.698;11.946;2022-07-23T08:27:57;0.45;;;0.45;;
13439;SDS011;6792;57.698;11.946;2022-07-23T08:30:27;0.45;;;0.45;;
13439;SDS011;6792;57.698;11.946;2022-07-23T08:32:58;0.57;;;0.57;;
13439;SDS011;6792;57.698;11.946;2022-07-23T08:35:28;1.02;;;0.30;;
13439;SDS011;6792;57.698;11.946;2022-07-23T08:37:59;1.52;;;0.60;;
13439;SDS011;6792;57.698;11.946;2022-07-23T08:40:29;0.50;;;0.50;;
13439;SDS011;6792;57.698;11.946;2022-07-23T08:42:59;0.85;;;0.60;;
13439;SDS011;6792;57.698;11.946;2022-07-23T08:45:30;0.68;;;0.50;;
13439;SDS011;6792;57.698;11.946;2022-07-23T08:48:00;0.40;;;0.40;;
13439;SDS011;6792;57.698;11.946;2022-07-23T08:50:30;0.85;;;0.40;;
13439;SDS011;6792;57.698;11.946;2022-07-23T08:53:02;1.12;;;0.57;;
13439;SDS011;6792;57.698;11.946;2022-07-23T08:55:34;0.50;;;0.50;;
13439;SDS011;6792;57.698;11.946;2022-07-23T08:58:03;0.75;;;0.60;;
13439;SDS011;6792;57.698;11.946;2022-07-23T09:00:32;1.15;;;0.50;;
13439;SDS011;6792;57.698;11.946;2022-07-23T09:03:01;0.40;;;0.40;;
13439;SDS011;6792;57.698;11.946;2022-07-23T09:05:30;0.60;;;0.60;;
13439;SDS011;6792;57.698;11.946;2022-07-23T09:08:10;0.60;;;0.60;;
13439;SDS011;6792;57.698;11.946;2022-07-23T09:10:43;2.10;;;0.50;;
13439;SDS011;6792;57.698;11.946;2022-07-23T09:13:24;0.65;;;0.50;;
13439;SDS011;6792;57.698;11.946;2022-07-23T09:16:05;0.70;;;0.53;;
13439;SDS011;6792;57.698;11.946;2022-07-23T09:18:38;0.98;;;0.70;;
13439;SDS011;6792;57.698;11.946;2022-07-23T09:21:10;0.78;;;0.60;;
13439;SDS011;6792;57.698;11.946;2022-07-23T09:23:45;1.05;;;0.57;;
13439;SDS011;6792;57.698;11.946;2022-07-23T09:26:19;0.70;;;0.60;;
13439;SDS011;6792;57.698;11.946;2022-07-23T09:28:51;1.37;;;0.50;;
13439;SDS011;6792;57.698;11.946;2022-07-23T09:31:22;0.55;;;0.50;;
13439;SDS011;6792;57.698;11.946;2022-07-23T09:34:01;0.80;;;0.80;;
13439;SDS011;6792;57.698;11.946;2022-07-23T09:36:31;0.65;;;0.65;;
13439;SDS011;6792;57.698;11.946;2022-07-23T09:39:00;0.68;;;0.60;;
13439;SDS011;6792;57.698;11.946;2022-07-23T09:41:34;0.53;;;0.50;;
13439;SDS011;6792;57.698;11.946;2022-07-23T09:44:09;0.60;;;0.60;;
13439;SDS011;6792;57.698;11.946;2022-07-23T09:46:40;0.60;;;0.50;;
13439;SDS011;6792;57.698;11.946;2022-07-23T09:49:11;0.40;;;0.40;;
13439;SDS011;6792;57.698;11.946;2022-07-23T09:51:45;0.65;;;0.50;;
13439;SDS011;6792;57.698;11.946;2022-07-23T09:54:23;0.55;;;0.50;;
13439;SDS011;6792;57.698;11.946;2022-07-23T09:56:56;0.40;;;0.40;;
13439;SDS011;6792;57.698;11.946;2022-07-23T09:59:27;1.12;;;0.57;;
13439;SDS011;6792;57.698;11.946;2022-07-23T10:01:57;1.07;;;0.50;;
13439;SDS011;6792;57.698;11.946;2022-07-23T10:04:29;0.55;;;0.35;;
13439;SDS011;6792;57.698;11.946;2022-07-23T10:06:59;1.98;;;0.50;;
13439;SDS011;6792;57.698;11.946;2022-07-23T10:09:31;0.88;;;0.33;;
13439;SDS011;6792;57.698;11.946;2022-07-23T10:12:02;0.28;;;0.20;;
13439;SDS011;6792;57.698;11.946;2022-07-23T10:14:42;0.20;;;0.20;;
13439;SDS011;6792;57.698;11.946;2022-07-23T10:17:17;1.80;;;0.50;;
13439;SDS011;6792;57.698;11.946;2022-07-23T10:19:48;0.50;;;0.50;;
13439;SDS011;6792;57.698;11.946;2022-07-23T10:22:19;1.65;;;0.47;;
13439;SDS011;6792;57.698;11.946;2022-07-23T10:24:52;0.47;;;0.30;;
13439;SDS011;6792;57.698;11.946;2022-07-23T10:27:30;0.55;;;0.55;;
13439;SDS011;6792;57.698;11.946;2022-07-23T10:30:05;0.30;;;0.30;;
13439;SDS011;6792;57.698;11.946;2022-07-23T10:32:40;1.87;;;0.47;;
13439;SDS011;6792;57.698;11.946;2022-07-23T10:35:13;0.40;;;0.40;;
13439;SDS011;6792;57.698;11.946;2022-07-23T10:37:44;3.42;;;0.40;;
13439;SDS011;6792;57.698;11.946;2022-07-23T10:40:18;0.47;;;0.30;;
13439;SDS011;6792;57.698;11.946;2022-07-23T10:42:51;0.40;;;0.40;;
13439;SDS011;6792;57.698;11.946;2022-07-23T10:45:25;0.50;;;0.50;;
13439;SDS011;6792;57.698;11.946;2022-07-23T10:48:10;0.50;;;0.50;;
13439;SDS011;6792;57.698;11.946;2022-07-23T10:51:07;0.95;;;0.47;;
13439;SDS011;6792;57.698;11.946;2022-07-23T10:53:56;0.50;;;0.40;;
13439;SDS011;6792;57.698;11.946;2022-07-23T10:59:30;3.00;;;0.42;;
13439;SDS011;6792;57.698;11.946;2022-07-23T11:04:51;0.55;;;0.47;;
13439;SDS011;6792;57.698;11.946;2022-07-23T11:07:20;1.45;;;0.47;;
13439;SDS011;6792;57.698;11.946;2022-07-23T11:09:49;0.85;;;0.50;;
13439;SDS011;6792;57.698;11.946;2022-07-23T11:12:31;0.50;;;0.50;;
13439;SDS011;6792;57.698;11.946;2022-07-23T11:15:05;0.40;;;0.40;;
13439;SDS011;6792;57.698;11.946;2022-07-23T11:17:37;0.40;;;0.40;;
13439;SDS011;6792;57.698;11.946;2022-07-23T11:20:18;0.40;;;0.40;;
13439;SDS011;6792;57.698;11.946;2022-07-23T11:22:49;1.10;;;0.60;;
13439;SDS011;6792;57.698;11.946;2022-07-23T11:25:30;0.50;;;0.50;;
13439;SDS011;6792;57.698;11.946;2022-07-23T11:28:09;1.15;;;0.50;;
13439;SDS011;6792;57.698;11.946;2022-07-23T11:30:42;0.70;;;0.60;;
13439;SDS011;6792;57.698;11.946;2022-07-23T11:33:21;0.40;;;0.40;;
13439;SDS011;6792;57.698;11.946;2022-07-23T11:36:00;1.05;;;0.47;;
13439;SDS011;6792;57.698;11.946;2022-07-23T11:38:31;0.70;;;0.60;;
13439;SDS011;6792;57.698;11.946;2022-07-23T11:41:00;3.37;;;0.50;;
13439;SDS011;6792;57.698;11.946;2022-07-23T11:43:29;0.50;;;0.50;;
13439;SDS011;6792;57.698;11.946;2022-07-23T11:45:58;0.45;;;0.42;;
13439;SDS011;6792;57.698;11.946;2022-07-23T11:48:29;0.40;;;0.40;;
13439;SDS011;6792;57.698;11.946;2022-07-23T11:50:59;0.50;;;0.50;;
13439;SDS011;6792;57.698;11.946;2022-07-23T11:53:28;0.70;;;0.70;;
13439;SDS011;6792;57.698;11.946;2022-07-23T11:56:03;1.30;;;0.72;;
13439;SDS011;6792;57.698;11.946;2022-07-23T11:58:34;2.00;;;0.50;;
13439;SDS011;6792;57.698;11.946;2022-07-23T12:01:03;0.40;;;0.40;;
13439;SDS011;6792;57.698;11.946;2022-07-23T12:03:32;0.70;;;0.70;;
13439;SDS011;6792;57.698;11.946;2022-07-23T12:06:02;0.65;;;0.53;;
13439;SDS011;6792;57.698;11.946;2022-07-23T12:08:31;0.88;;;0.70;;
13439;SDS011;6792;57.698;11.946;2022-07-23T12:11:00;2.15;;;0.70;;
13439;SDS011;6792;57.698;11.946;2022-07-23T12:13:29;1.55;;;0.80;;
13439;SDS011;6792;57.698;11.946;2022-07-23T12:15:58;1.07;;;0.70;;
13439;SDS011;6792;57.698;11.946;2022-07-23T12:18:27;1.40;;;1.10;;
13439;SDS011;6792;57.698;11.946;2022-07-23T12:20:57;1.27;;;0.75;;
13439;SDS011;6792;57.698;11.946;2022-07-23T12:23:28;0.62;;;0.62;;
13439;SDS011;6792;57.698;11.946;2022-07-23T12:26:00;1.25;;;0.80;;
13439;SDS011;6792;57.698;11.946;2022-07-23T12:28:30;0.70;;;0.70;;
13439;SDS011;6792;57.698;11.946;2022-07-23T12:31:00;0.70;;;0.70;;
13439;SDS011;6792;57.698;11.946;2022-07-23T12:33:30;2.15;;;0.98;;
13439;SDS011;6792;57.698;11.946;2022-07-23T12:36:00;2.98;;;0.70;;
13439;SDS011;6792;57.698;11.946;2022-07-23T12:38:37;0.82;;;0.78;;
13439;SDS011;6792;57.698;11.946;2022-07-23T12:41:07;0.80;;;0.80;;
13439;SDS011;6792;57.698;11.946;2022-07-23T12:43:36;0.98;;;0.95;;
13439;SDS011;6792;57.698;11.946;2022-07-23T12:46:07;1.65;;;0.82;;
13439;SDS011;6792;57.698;11.946;2022-07-23T12:48:38;1.77;;;0.72;;
13439;SDS011;6792;57.698;11.946;2022-07-23T12:51:14;0.70;;;0.70;;
13439;SDS011;6792;57.698;11.946;2022-07-23T12:53:46;0.70;;;0.65;;
13439;SDS011;6792;57.698;11.946;2022-07-23T12:56:17;1.30;;;0.80;;
13439;SDS011;6792;57.698;11.946;2022-07-23T12:58:48;1.35;;;0.60;;
13439;SDS011;6792;57.698;11.946;2022-07-23T13:01:22;1.75;;;0.80;;
13439;SDS011;6792;57.698;11.946;2022-07-23T13:03:56;2.25;;;0.80;;
13439;SDS011;6792;57.698;11.946;2022-07-23T13:06:29;0.70;;;0.70;;
13439;SDS011;6792;57.698;11.946;2022-07-23T13:08:59;0.60;;;0.60;;
13439;SDS011;6792;57.698;11.946;2022-07-23T13:11:29;1.00;;;0.82;;
13439;SDS011;6792;57.698;11.946;2022-07-23T13:13:58;2.33;;;1.00;;
13439;SDS011;6792;57.698;11.946;2022-07-23T13:16:27;0.85;;;0.85;;
13439;SDS011;6792;57.698;11.946;2022-07-23T13:18:57;0.90;;;0.57;;
13439;SDS011;6792;57.698;11.946;2022-07-23T13:21:28;0.72;;;0.72;;
13439;SDS011;6792;57.698;11.946;2022-07-23T13:23:57;0.98;;;0.88;;
13439;SDS011;6792;57.698;11.946;2022-07-23T13:26:26;1.00;;;0.90;;
13439;SDS011;6792;57.698;11.946;2022-07-23T13:28:55;1.85;;;1.02;;
13439;SDS011;6792;57.698;11.946;2022-07-23T13:31:25;0.80;;;0.80;;
13439;SDS011;6792;57.698;11.946;2022-07-23T13:33:53;1.55;;;0.78;;
13439;SDS011;6792;57.698;11.946;2022-07-23T13:36:22;1.45;;;0.85;;
13439;SDS011;6792;57.698;11.946;2022-07-23T13:38:51;1.65;;;0.80;;
13439;SDS011;6792;57.698;11.946;2022-07-23T13:41:20;0.70;;;0.70;;
13439;SDS011;6792;57.698;11.946;2022-07-23T13:43:51;1.07;;;0.98;;
13439;SDS011;6792;57.698;11.946;2022-07-23T13:46:20;1.90;;;1.05;;
13439;SDS011;6792;57.698;11.946;2022-07-23T13:48:48;1.07;;;1.02;;
13439;SDS011;6792;57.698;11.946;2022-07-23T13:51:17;2.77;;;1.27;;
13439;SDS011;6792;57.698;11.946;2022-07-23T13:53:47;0.80;;;0.80;;
13439;SDS011;6792;57.698;11.946;2022-07-23T13:56:16;1.12;;;1.10;;
13439;SDS011;6792;57.698;11.946;2022-07-23T13:58:45;0.93;;;0.93;;
13439;SDS011;6792;57.698;11.946;2022-07-23T14:01:17;1.47;;;1.25;;
13439;SDS011;6792;57.698;11.946;2022-07-23T14:03:48;1.30;;;0.93;;
13439;SDS011;6792;57.698;11.946;2022-07-23T14:06:17;1.07;;;1.05;;
13439;SDS011;6792;57.698;11.946;2022-07-23T14:08:49;1.10;;;0.93;;
13439;SDS011;6792;57.698;11.946;2022-07-23T14:11:17;3.00;;;1.20;;
13439;SDS011;6792;57.698;11.946;2022-07-23T14:13:49;0.93;;;0.93;;
13439;SDS011;6792;57.698;11.946;2022-07-23T14:16:18;2.47;;;1.00;;
13439;SDS011;6792;57.698;11.946;2022-07-23T14:18:47;1.00;;;0.90;;
13439;SDS011;6792;57.698;11.946;2022-07-23T14:21:19;0.80;;;0.80;;
13439;SDS011;6792;57.698;11.946;2022-07-23T14:23:48;0.85;;;0.80;;
13439;SDS011;6792;57.698;11.946;2022-07-23T14:26:20;1.17;;;1.00;;
13439;SDS011;6792;57.698;11.946;2022-07-23T14:28:49;1.30;;;1.20;;
13439;SDS011;6792;57.698;11.946;2022-07-23T14:31:18;1.00;;;1.00;;
13439;SDS011;6792;57.698;11.946;2022-07-23T14:33:47;1.60;;;1.10;;
13439;SDS011;6792;57.698;11.946;2022-07-23T14:36:18;3.50;;;1.20;;
13439;SDS011;6792;57.698;11.946;2022-07-23T14:38:47;1.35;;;1.20;;
13439;SDS011;6792;57.698;11.946;2022-07-23T14:41:19;1.10;;;1.00;;
13439;SDS011;6792;57.698;11.946;2022-07-23T14:43:49;2.37;;;1.30;;
13439;SDS011;6792;57.698;11.946;2022-07-23T14:46:17;1.02;;;0.98;;
13439;SDS011;6792;57.698;11.946;2022-07-23T14:48:47;2.15;;;0.90;;
13439;SDS011;6792;57.698;11.946;2022-07-23T14:51:14;1.25;;;1.15;;
13439;SDS011;6792;57.698;11.946;2022-07-23T14:53:44;2.65;;;1.57;;
13439;SDS011;6792;57.698;11.946;2022-07-23T14:56:18;1.40;;;1.30;;
13439;SDS011;6792;57.698;11.946;2022-07-23T14:58:47;1.15;;;1.10;;
13439;SDS011;6792;57.698;11.946;2022-07-23T15:01:19;1.02;;;1.02;;
13439;SDS011;6792;57.698;11.946;2022-07-23T15:03:49;1.12;;;1.02;;
13439;SDS011;6792;57.698;11.946;2022-07-23T15:06:18;2.20;;;1.30;;
13439;SDS011;6792;57.698;11.946;2022-07-23T15:08:47;1.50;;;1.40;;
13439;SDS011;6792;57.698;11.946;2022-07-23T15:11:16;1.00;;;0.98;;
13439;SDS011;6792;57.698;11.946;2022-07-23T15:13:45;0.93;;;0.93;;